Overview Statistics Trail Chart Weather Telemetry Raw packets
 

This is the latest recevied weather packets stored in our database for station/object IZ7EXI-13. If no packets are shown the sender has not sent any weather packets the latest 10 day(s).

<< 10 11 12 13 14 15 16 >>
Time Temp. Humidity Pressure Rain* Wind** Luminosity Snow
1788454374 32.78° C 52% 1017.5 hPa - - - -
1788453504 32.78° C 52% 1017.5 hPa - - - -
1788453479 32.78° C 52% 1017.5 hPa - - - -
1788452574 32.78° C 50% 1017.5 hPa - - - -
1788451674 32.22° C 54% 1017.6 hPa - - - -
1788450800 32.22° C 56% 1017.6 hPa - - - -
1788450772 32.22° C 56% 1017.6 hPa - - - -
1788449900 31.11° C 58% 1017.6 hPa - - - -
1788449872 31.11° C 58% 1017.6 hPa - - - -
1788448972 31.11° C 58% 1017.6 hPa - - - -
1788448072 31.11° C 59% 1017.5 hPa - - - -
1788447172 31.11° C 59% 1017.3 hPa - - - -
1788446303 31.11° C 58% 1017.2 hPa - - - -
1788446271 31.11° C 58% 1017.2 hPa - - - -
1788445403 31.11° C 59% 1017.3 hPa - - - -
1788445371 31.11° C 59% 1017.3 hPa - - - -
1788444471 31.67° C 56% 1017.4 hPa - - - -
1788443602 31.67° C 56% 1017.6 hPa - - - -
1788443571 31.67° C 56% 1017.6 hPa - - - -
1788442670 32.22° C 56% 1017.7 hPa - - - -
1788441770 32.22° C 55% 1017.6 hPa - - - -
1788440870 32.22° C 53% 1017.6 hPa - - - -
1788439970 33.33° C 49% 1017.6 hPa - - - -
1788439070 34.44° C 44% 1017.7 hPa - - - -
1788438169 35.56° C 38% 1017.8 hPa - - - -

* Rain since midnight (hover to see other rain measurements)
** Current wind speed in m/s (hover to see current wind gust speed)